Union Springs, New York
Current Conditions -  °F | °C
As of 11:11 PM on Tuesday 21 Oct 2014 (Local Time) from KPEO Reporting Station
Haze Haze  
Wind Chill: 45°   Ceiling: 700
Heat Index: 48°   Visibility: 6mi
Dew Point: 47°   Wind: 7mph
Humidity: 96%   Direction: 350°N
Pressure: 30.02"   Gusts: NA
Location:  42.84°N, 76.69°W
Report Text: KPEO 220311Z AUTO 35006KT 6SM BR SCT001 OVC007 09/08 A3002 RMK AO2 RAE06 CIG 003V010 P0000 T00890083
Loading
Personal Weather Stations






























Interactive Weather Map
Tropical Storm Tracking
New forecast layout! Learn more

10-Day Weather Forecast

Advertisements
Track Severe Weather on mobile